createdAt,value
2023-03-16T00:02:11.647Z,81.60
2023-03-16T00:04:39.338Z,81.60
2023-03-16T00:07:09.920Z,81.70
2023-03-16T00:09:41.012Z,81.50
2023-03-16T00:12:16.293Z,81.70
2023-03-16T00:14:49.678Z,81.30
2023-03-16T00:17:19.496Z,81.00
2023-03-16T00:19:55.643Z,81.50
2023-03-16T00:22:29.179Z,80.90
2023-03-16T00:24:56.972Z,81.40
2023-03-16T00:27:26.155Z,82.00
2023-03-16T00:29:57.006Z,81.50
2023-03-16T00:32:28.320Z,81.50
2023-03-16T00:34:56.248Z,81.20
2023-03-16T00:37:25.125Z,81.10
2023-03-16T00:39:56.206Z,80.90
2023-03-16T00:42:27.425Z,80.80
2023-03-16T00:44:59.493Z,80.70
2023-03-16T00:47:32.800Z,80.60
2023-03-16T00:50:01.816Z,80.00
2023-03-16T00:52:29.406Z,80.60
2023-03-16T00:54:57.274Z,80.70
2023-03-16T00:57:27.716Z,80.90
2023-03-16T00:59:54.629Z,81.00
2023-03-16T01:02:24.516Z,81.10
2023-03-16T01:04:54.547Z,81.20
2023-03-16T01:07:22.220Z,81.20
2023-03-16T01:09:49.355Z,81.10
2023-03-16T01:12:19.204Z,80.90
2023-03-16T01:14:46.948Z,80.80
2023-03-16T01:17:16.205Z,80.70
2023-03-16T01:19:43.857Z,80.60
2023-03-16T01:22:12.200Z,80.60
2023-03-16T01:24:41.027Z,80.30
2023-03-16T01:27:08.988Z,80.40
2023-03-16T01:29:36.927Z,80.50
2023-03-16T01:32:04.805Z,80.70
2023-03-16T01:34:32.322Z,80.60
2023-03-16T01:37:00.341Z,80.50
2023-03-16T01:39:27.906Z,80.40
2023-03-16T01:41:54.802Z,80.40
2023-03-16T01:44:30.301Z,80.60
2023-03-16T01:46:58.005Z,80.80
2023-03-16T01:49:34.073Z,80.40
2023-03-16T01:52:09.304Z,79.90
2023-03-16T01:54:40.940Z,79.70
2023-03-16T01:57:42.694Z,79.80
2023-03-16T02:00:23.775Z,79.30
2023-03-16T02:02:59.231Z,79.40
2023-03-16T02:05:52.821Z,79.00
2023-03-16T02:08:22.839Z,77.20
2023-03-16T02:10:49.956Z,79.60
2023-03-16T02:13:16.812Z,79.70
2023-03-16T02:15:43.961Z,79.80
2023-03-16T02:18:11.532Z,79.90
2023-03-16T02:21:01.565Z,79.90
2023-03-16T02:23:29.614Z,78.20
2023-03-16T02:26:37.503Z,79.80
2023-03-16T02:29:46.766Z,77.90
2023-03-16T02:32:16.520Z,77.20
2023-03-16T02:34:43.646Z,79.50
2023-03-16T02:37:12.049Z,79.70
2023-03-16T02:39:38.862Z,79.70
2023-03-16T02:42:05.968Z,79.90
2023-03-16T02:44:37.175Z,80.00
2023-03-16T02:47:13.790Z,79.80
2023-03-16T02:49:45.503Z,79.50
2023-03-16T02:52:13.288Z,79.80
2023-03-16T02:54:40.250Z,79.70
2023-03-16T02:57:07.191Z,79.60
2023-03-16T02:59:34.072Z,80.10
2023-03-16T03:02:01.461Z,79.70
2023-03-16T03:04:28.534Z,79.80
2023-03-16T03:06:55.509Z,79.70
2023-03-16T03:09:22.400Z,79.70
2023-03-16T03:11:50.671Z,79.80
2023-03-16T03:14:17.513Z,80.00
2023-03-16T03:16:47.274Z,80.20
2023-03-16T03:19:14.697Z,80.50
2023-03-16T03:21:42.042Z,80.80
2023-03-16T03:24:10.123Z,80.80
2023-03-16T03:26:38.199Z,80.80
2023-03-16T03:29:05.329Z,80.70
2023-03-16T03:31:32.271Z,80.70
2023-03-16T03:33:59.503Z,80.70
2023-03-16T03:36:26.447Z,80.70
2023-03-16T03:38:54.839Z,80.50
2023-03-16T03:41:22.543Z,80.30
2023-03-16T03:43:49.543Z,80.30
2023-03-16T03:46:16.472Z,80.20
2023-03-16T03:48:43.325Z,80.10
2023-03-16T03:51:10.248Z,80.10
2023-03-16T03:53:37.258Z,80.10
2023-03-16T03:56:04.165Z,80.10
2023-03-16T03:58:31.067Z,80.10
2023-03-16T04:00:57.972Z,80.00
2023-03-16T04:03:24.837Z,79.90
2023-03-16T04:05:51.867Z,80.00
2023-03-16T04:08:18.825Z,80.00
2023-03-16T04:10:45.656Z,79.90
2023-03-16T04:13:12.511Z,80.00
2023-03-16T04:15:39.461Z,80.00
2023-03-16T04:18:06.356Z,80.00
2023-03-16T04:20:34.769Z,80.40
2023-03-16T04:23:01.627Z,79.90
2023-03-16T04:25:30.463Z,79.90
2023-03-16T04:27:57.412Z,79.80
2023-03-16T04:30:24.233Z,79.80
2023-03-16T04:32:52.351Z,79.80
2023-03-16T04:35:19.989Z,79.80
2023-03-16T04:37:46.837Z,79.80
2023-03-16T04:40:16.763Z,80.00
2023-03-16T04:42:48.117Z,80.10
2023-03-16T04:45:17.829Z,79.70
2023-03-16T04:47:45.139Z,80.60
2023-03-16T04:50:13.059Z,80.10
2023-03-16T04:52:40.297Z,80.10
2023-03-16T04:55:07.809Z,80.10
2023-03-16T04:57:35.129Z,80.10
2023-03-16T05:00:02.369Z,80.10
2023-03-16T05:02:29.210Z,80.00
2023-03-16T05:04:56.074Z,80.10
2023-03-16T05:07:22.968Z,80.10
2023-03-16T05:09:49.834Z,80.30
2023-03-16T05:12:16.698Z,80.20
2023-03-16T05:14:43.498Z,80.30
2023-03-16T05:17:10.383Z,80.40
2023-03-16T05:19:37.191Z,80.50
2023-03-16T05:22:03.996Z,80.50
2023-03-16T05:24:30.814Z,80.40
2023-03-16T05:26:57.687Z,80.30
2023-03-16T05:29:26.119Z,80.30
2023-03-16T05:31:52.978Z,80.40
2023-03-16T05:34:19.811Z,80.30
2023-03-16T05:36:46.660Z,80.50
2023-03-16T05:39:13.649Z,80.70
2023-03-16T05:41:41.263Z,80.80
2023-03-16T05:44:08.816Z,81.00
2023-03-16T05:46:35.701Z,81.10
2023-03-16T05:49:03.307Z,81.20
2023-03-16T05:51:30.355Z,81.10
2023-03-16T05:53:57.163Z,81.20
2023-03-16T05:56:26.740Z,81.40
2023-03-16T05:58:55.631Z,81.40
2023-03-16T06:01:23.848Z,81.40
2023-03-16T06:03:52.168Z,81.50
2023-03-16T06:06:23.594Z,81.50
2023-03-16T06:08:50.715Z,81.40
2023-03-16T06:11:17.938Z,81.60
2023-03-16T06:13:45.301Z,81.70
2023-03-16T06:16:14.279Z,81.90
2023-03-16T06:18:41.477Z,82.00
2023-03-16T06:21:08.557Z,82.00
2023-03-16T06:23:35.703Z,81.90
2023-03-16T06:26:02.651Z,81.90
2023-03-16T06:28:29.734Z,81.90
2023-03-16T06:30:58.056Z,81.80
2023-03-16T06:33:25.378Z,81.50
2023-03-16T06:35:52.623Z,81.40
2023-03-16T06:38:20.152Z,81.30
2023-03-16T06:40:52.557Z,81.40
2023-03-16T06:43:19.966Z,81.40
2023-03-16T06:45:47.122Z,81.60
2023-03-16T06:48:14.075Z,82.30
2023-03-16T06:50:40.865Z,82.90
2023-03-16T06:53:08.131Z,83.20
2023-03-16T06:55:34.985Z,83.10
2023-03-16T06:58:01.788Z,83.00
2023-03-16T07:00:29.026Z,83.20
2023-03-16T07:02:56.061Z,83.30
2023-03-16T07:05:22.894Z,83.70
2023-03-16T07:07:49.729Z,84.10
2023-03-16T07:10:18.406Z,84.70
2023-03-16T07:12:45.958Z,84.80
2023-03-16T07:15:13.976Z,85.30
2023-03-16T07:17:41.120Z,85.20
2023-03-16T07:20:10.883Z,85.10
2023-03-16T07:22:39.475Z,84.70
2023-03-16T07:25:08.199Z,84.50
2023-03-16T07:27:35.073Z,84.60
2023-03-16T07:30:01.937Z,84.50
2023-03-16T07:32:28.853Z,84.50
2023-03-16T07:34:58.121Z,84.60
2023-03-16T07:37:26.898Z,85.30
2023-03-16T07:39:53.830Z,84.60
2023-03-16T07:42:22.703Z,84.80
2023-03-16T07:44:51.773Z,84.70
2023-03-16T07:47:19.238Z,84.20
2023-03-16T07:49:46.164Z,84.60
2023-03-16T07:52:13.748Z,84.80
2023-03-16T07:54:41.551Z,84.00
2023-03-16T07:57:09.163Z,83.20
2023-03-16T07:59:36.055Z,83.20
2023-03-16T08:02:03.835Z,83.90
2023-03-16T08:04:31.312Z,84.40
2023-03-16T08:07:00.299Z,85.00
2023-03-16T08:09:30.451Z,85.10
2023-03-16T08:11:57.292Z,85.10
2023-03-16T08:14:24.265Z,85.40
2023-03-16T08:16:51.695Z,86.10
2023-03-16T08:19:20.275Z,85.90
2023-03-16T08:22:00.609Z,86.40
2023-03-16T08:24:29.568Z,89.10
2023-03-16T08:26:57.585Z,90.00
2023-03-16T08:29:26.267Z,88.30
2023-03-16T08:31:57.555Z,86.40
2023-03-16T08:34:28.823Z,84.80
2023-03-16T08:36:55.840Z,83.40
2023-03-16T08:39:22.763Z,83.40
2023-03-16T08:41:49.659Z,83.50
2023-03-16T08:44:17.439Z,83.50
2023-03-16T08:46:44.895Z,82.80
2023-03-16T08:49:13.609Z,82.80
2023-03-16T08:51:40.478Z,82.40
2023-03-16T08:54:07.474Z,81.90
2023-03-16T08:56:34.381Z,81.70
2023-03-16T08:59:01.191Z,81.50
2023-03-16T09:01:28.115Z,82.00
2023-03-16T09:03:55.221Z,83.30
2023-03-16T09:06:22.517Z,85.60
2023-03-16T09:08:49.406Z,84.90
2023-03-16T09:11:19.125Z,83.30
2023-03-16T09:13:47.260Z,81.50
2023-03-16T09:16:16.106Z,80.30
2023-03-16T09:18:43.590Z,80.90
2023-03-16T09:21:13.778Z,83.30
2023-03-16T09:23:42.763Z,83.10
2023-03-16T09:26:12.568Z,83.20
2023-03-16T09:28:44.969Z,84.20
2023-03-16T09:31:18.926Z,87.30
2023-03-16T09:33:47.017Z,85.70
2023-03-16T09:36:15.186Z,84.90
2023-03-16T09:38:44.562Z,83.80
2023-03-16T09:41:42.793Z,80.80
2023-03-16T09:44:38.045Z,80.20
2023-03-16T09:47:06.423Z,74.70
2023-03-16T09:49:39.670Z,84.70
2023-03-16T09:52:20.536Z,82.90
2023-03-16T09:55:21.320Z,82.40
2023-03-16T09:58:10.765Z,78.50
2023-03-16T10:01:31.531Z,79.30
2023-03-16T10:04:52.974Z,76.10
2023-03-16T10:10:47.261Z,66.50
2023-03-16T10:13:40.571Z,71.60
2023-03-16T10:16:25.382Z,67.90
2023-03-16T10:19:02.923Z,68.30
2023-03-16T10:21:37.222Z,64.50
2023-03-16T10:24:13.566Z,66.60
2023-03-16T10:26:48.983Z,67.30
2023-03-16T10:29:16.736Z,65.10
2023-03-16T10:31:43.672Z,67.50
2023-03-16T10:34:10.825Z,68.70
2023-03-16T10:36:43.117Z,71.60
2023-03-16T10:39:16.383Z,73.10
2023-03-16T10:41:56.136Z,74.00
2023-03-16T10:44:28.510Z,71.20
2023-03-16T10:47:08.115Z,71.60
2023-03-16T10:49:44.337Z,62.60
2023-03-16T10:52:40.797Z,64.50
2023-03-16T10:55:30.559Z,60.90
2023-03-16T10:57:58.134Z,62.60
2023-03-16T11:00:36.165Z,68.20
2023-03-16T11:03:32.211Z,63.40
2023-03-16T11:06:04.366Z,59.00
2023-03-16T11:08:39.882Z,63.10
2023-03-16T11:11:17.327Z,58.50
2023-03-16T11:13:47.451Z,60.50
2023-03-16T11:16:44.071Z,63.00
2023-03-16T11:19:35.703Z,61.30
2023-03-16T11:22:23.796Z,62.40
2023-03-16T11:25:08.332Z,60.50
2023-03-16T11:27:52.924Z,66.30
2023-03-16T11:30:41.444Z,68.50
2023-03-16T11:33:15.373Z,67.20
2023-03-16T11:36:04.636Z,66.70
2023-03-16T11:38:46.177Z,64.00
2023-03-16T11:41:39.603Z,69.40
2023-03-16T11:44:34.244Z,68.50
2023-03-16T11:47:30.396Z,70.60
2023-03-16T11:50:20.063Z,69.60
2023-03-16T11:53:28.570Z,67.90
2023-03-16T11:56:11.145Z,67.10
2023-03-16T11:59:08.501Z,74.80
2023-03-16T12:02:00.831Z,69.70
2023-03-16T12:04:42.204Z,73.90
2023-03-16T12:07:12.126Z,71.50
2023-03-16T12:10:08.020Z,69.50
2023-03-16T12:13:07.320Z,71.00
2023-03-16T12:15:54.586Z,70.70
2023-03-16T12:18:35.623Z,73.10
2023-03-16T12:21:12.439Z,76.80
2023-03-16T12:23:56.795Z,77.20
2023-03-16T12:26:30.205Z,77.40
2023-03-16T12:29:00.103Z,77.30
2023-03-16T12:31:55.935Z,78.30
2023-03-16T12:34:44.333Z,70.70
2023-03-16T12:37:41.438Z,71.70
2023-03-16T12:40:20.401Z,74.60
2023-03-16T12:43:06.829Z,78.50
2023-03-16T12:46:01.340Z,73.20
2023-03-16T12:48:37.094Z,72.90
2023-03-16T12:51:05.582Z,78.70
2023-03-16T12:53:53.970Z,80.40
2023-03-16T12:56:34.757Z,77.40
2023-03-16T12:59:05.924Z,74.00
2023-03-16T13:01:43.705Z,78.70
2023-03-16T13:04:23.510Z,73.20
2023-03-16T13:07:03.221Z,76.60
2023-03-16T13:09:34.051Z,78.00
2023-03-16T13:12:04.970Z,80.20
2023-03-16T13:14:42.630Z,73.30
2023-03-16T13:17:18.537Z,74.80
2023-03-16T13:19:59.970Z,77.40
2023-03-16T13:22:31.295Z,83.90
2023-03-16T13:25:18.765Z,84.00
2023-03-16T13:27:54.492Z,75.50
2023-03-16T13:30:29.763Z,81.10
2023-03-16T13:33:21.910Z,78.80
2023-03-16T13:35:52.448Z,78.70
2023-03-16T13:38:22.753Z,80.40
2023-03-16T13:40:53.402Z,78.10
2023-03-16T13:43:29.323Z,79.40
2023-03-16T13:45:56.595Z,79.00
2023-03-16T13:48:24.056Z,80.30
2023-03-16T13:50:58.621Z,78.60
2023-03-16T13:53:32.903Z,72.10
2023-03-16T13:56:04.580Z,73.10
2023-03-16T13:58:37.932Z,76.10
2023-03-16T14:01:23.094Z,74.20
2023-03-16T14:03:51.388Z,77.10
2023-03-16T14:06:31.277Z,76.90
2023-03-16T14:09:04.859Z,70.10
2023-03-16T14:11:32.104Z,75.20
2023-03-16T14:14:16.763Z,76.40
2023-03-16T14:16:44.642Z,75.00
2023-03-16T14:19:22.647Z,78.10
2023-03-16T14:21:50.104Z,74.20
2023-03-16T14:24:29.710Z,77.90
2023-03-16T14:26:58.380Z,73.20
2023-03-16T14:29:31.021Z,82.80
2023-03-16T14:32:00.033Z,81.40
2023-03-16T14:34:37.145Z,88.70
2023-03-16T14:37:19.403Z,86.10
2023-03-16T14:39:58.219Z,84.90
2023-03-16T14:42:29.554Z,90.70
2023-03-16T14:44:59.880Z,87.20
2023-03-16T14:47:40.742Z,83.80
2023-03-16T14:50:16.858Z,75.80
2023-03-16T14:52:46.075Z,77.70
2023-03-16T14:55:20.206Z,82.80
2023-03-16T14:57:47.236Z,74.60
2023-03-16T15:00:16.656Z,83.80
2023-03-16T15:02:56.488Z,84.60
2023-03-16T15:05:39.566Z,85.20
2023-03-16T15:08:15.832Z,75.00
2023-03-16T15:10:44.249Z,80.80
2023-03-16T15:13:38.825Z,80.90
2023-03-16T15:16:08.804Z,72.70
2023-03-16T15:18:37.576Z,75.50
2023-03-16T15:21:13.741Z,76.30
2023-03-16T15:23:42.932Z,76.30
2023-03-16T15:26:13.054Z,71.30
2023-03-16T15:28:40.738Z,70.20
2023-03-16T15:31:11.119Z,69.50
2023-03-16T15:33:38.238Z,69.30
2023-03-16T15:36:20.003Z,61.40
2023-03-16T15:38:53.521Z,59.50
2023-03-16T15:41:21.301Z,63.30
2023-03-16T15:43:48.355Z,69.90
2023-03-16T15:46:16.584Z,69.40
2023-03-16T15:48:44.495Z,68.70
2023-03-16T15:51:27.442Z,67.60
2023-03-16T15:54:03.038Z,58.50
2023-03-16T15:56:38.777Z,66.90
2023-03-16T15:59:19.311Z,67.20
2023-03-16T16:01:48.462Z,65.70
2023-03-16T16:04:19.907Z,63.80
2023-03-16T16:06:48.636Z,62.60
2023-03-16T16:09:15.844Z,61.60
2023-03-16T16:11:42.930Z,61.20
2023-03-16T16:14:15.841Z,60.90
2023-03-16T16:16:45.970Z,57.20
2023-03-16T16:19:16.787Z,59.00
2023-03-16T16:21:43.885Z,56.90
2023-03-16T16:24:11.321Z,59.60
2023-03-16T16:26:50.081Z,59.40
2023-03-16T16:29:30.126Z,59.20
2023-03-16T16:31:57.399Z,57.40
2023-03-16T16:34:25.253Z,60.30
2023-03-16T16:36:57.285Z,60.80
2023-03-16T16:39:24.889Z,61.30
2023-03-16T16:41:56.404Z,62.00
2023-03-16T16:44:29.020Z,62.20
2023-03-16T16:46:57.433Z,62.30
2023-03-16T16:49:31.108Z,63.30
2023-03-16T16:51:59.315Z,63.30
2023-03-16T16:54:31.650Z,63.90
2023-03-16T16:57:01.222Z,61.80
2023-03-16T16:59:36.937Z,64.20
2023-03-16T17:02:28.270Z,62.50
2023-03-16T17:04:55.294Z,60.60
2023-03-16T17:07:22.434Z,65.60
2023-03-16T17:09:49.277Z,65.50
2023-03-16T17:12:21.849Z,65.90
2023-03-16T17:14:50.558Z,65.40
2023-03-16T17:17:18.524Z,66.50
2023-03-16T17:19:47.015Z,66.70
2023-03-16T17:22:24.797Z,66.90
2023-03-16T17:24:53.974Z,63.30
2023-03-16T17:27:28.463Z,67.40
2023-03-16T17:29:57.644Z,65.60
2023-03-16T17:32:25.729Z,67.70
2023-03-16T17:34:52.844Z,67.90
2023-03-16T17:37:22.317Z,68.20
2023-03-16T17:39:49.242Z,67.80
2023-03-16T17:42:19.446Z,68.40
2023-03-16T17:44:49.982Z,68.10
2023-03-16T17:47:30.207Z,68.30
2023-03-16T17:49:57.225Z,65.60
2023-03-16T17:52:29.157Z,69.00
2023-03-16T17:54:56.076Z,68.30
2023-03-16T17:57:32.492Z,68.80
2023-03-16T18:00:09.044Z,65.90
2023-03-16T18:02:54.650Z,67.50
2023-03-16T18:05:34.262Z,64.10
2023-03-16T18:08:12.317Z,64.90
2023-03-16T18:10:39.940Z,69.00
2023-03-16T18:13:22.532Z,69.30
2023-03-16T18:15:50.712Z,68.80
2023-03-16T18:18:22.633Z,69.60
2023-03-16T18:20:52.699Z,69.20
2023-03-16T18:23:24.106Z,69.50
2023-03-16T18:25:54.709Z,69.30
2023-03-16T18:28:23.205Z,69.40
2023-03-16T18:30:52.778Z,69.80
2023-03-16T18:33:30.126Z,69.70
2023-03-16T18:36:02.472Z,67.60
2023-03-16T18:38:42.516Z,69.70
2023-03-16T18:41:20.953Z,68.70
2023-03-16T18:43:47.879Z,69.10
2023-03-16T18:46:24.201Z,70.40
2023-03-16T18:48:54.455Z,67.50
2023-03-16T18:51:22.009Z,70.30
2023-03-16T18:53:49.012Z,70.30
2023-03-16T18:56:27.168Z,70.30
2023-03-16T18:58:56.617Z,68.60
2023-03-16T19:01:33.656Z,70.10
2023-03-16T19:04:02.162Z,70.40
2023-03-16T19:06:35.707Z,70.30
2023-03-16T19:09:12.586Z,68.50
2023-03-16T19:11:43.483Z,68.30
2023-03-16T19:14:26.684Z,69.70
2023-03-16T19:16:55.196Z,66.00
2023-03-16T19:19:24.342Z,70.50
2023-03-16T19:22:02.285Z,70.60
2023-03-16T19:24:43.805Z,68.90
2023-03-16T19:27:22.156Z,70.20
2023-03-16T19:29:52.151Z,68.50
2023-03-16T19:32:21.398Z,70.50
2023-03-16T19:34:48.880Z,70.50
2023-03-16T19:37:19.203Z,70.60
2023-03-16T19:39:46.553Z,70.60
2023-03-16T19:42:30.828Z,70.60
2023-03-16T19:44:57.719Z,67.10
2023-03-16T19:47:27.107Z,70.60
2023-03-16T19:49:54.363Z,70.60
2023-03-16T19:52:21.721Z,71.10
2023-03-16T19:54:48.821Z,70.60
2023-03-16T19:57:19.330Z,70.60
2023-03-16T19:59:52.374Z,70.60
2023-03-16T20:02:38.398Z,70.40
2023-03-16T20:05:06.595Z,67.60
2023-03-16T20:07:37.972Z,70.90
2023-03-16T20:10:06.715Z,71.00
2023-03-16T20:12:36.930Z,71.00
2023-03-16T20:15:04.164Z,71.00
2023-03-16T20:17:32.927Z,71.10
2023-03-16T20:19:59.928Z,71.10
2023-03-16T20:22:28.817Z,71.10
2023-03-16T20:24:57.923Z,70.80
2023-03-16T20:27:27.692Z,71.00
2023-03-16T20:29:55.723Z,71.00
2023-03-16T20:32:28.152Z,71.20
2023-03-16T20:34:55.047Z,70.80
2023-03-16T20:37:28.336Z,71.30
2023-03-16T20:39:58.973Z,70.20
2023-03-16T20:42:33.707Z,71.00
2023-03-16T20:45:01.660Z,70.90
2023-03-16T20:47:28.606Z,71.20
2023-03-16T20:49:59.495Z,71.30
2023-03-16T20:52:30.884Z,71.20
2023-03-16T20:54:58.706Z,71.10
2023-03-16T20:57:29.069Z,71.30
2023-03-16T20:59:56.460Z,71.10
2023-03-16T21:02:33.738Z,71.40
2023-03-16T21:05:04.229Z,71.50
2023-03-16T21:07:32.000Z,71.30
2023-03-16T21:10:00.267Z,71.40
2023-03-16T21:12:30.786Z,71.20
2023-03-16T21:15:00.197Z,71.20
2023-03-16T21:17:31.256Z,72.00
2023-03-16T21:19:59.616Z,71.70
2023-03-16T21:22:30.765Z,71.60
2023-03-16T21:24:58.233Z,70.80
2023-03-16T21:27:33.053Z,71.50
2023-03-16T21:30:10.348Z,71.00
2023-03-16T21:32:37.270Z,70.60
2023-03-16T21:35:04.508Z,71.40
2023-03-16T21:37:31.531Z,71.50
2023-03-16T21:40:00.751Z,71.70
2023-03-16T21:42:28.274Z,71.50
2023-03-16T21:44:55.086Z,71.70
2023-03-16T21:47:27.269Z,71.80
2023-03-16T21:49:55.547Z,71.40
2023-03-16T21:52:28.513Z,71.80
2023-03-16T21:54:57.718Z,70.80
2023-03-16T21:57:25.180Z,71.70
2023-03-16T21:59:52.030Z,71.70
2023-03-16T22:02:24.326Z,71.70
2023-03-16T22:04:52.436Z,71.40
2023-03-16T22:07:20.775Z,71.60
2023-03-16T22:09:47.596Z,71.60
2023-03-16T22:12:14.661Z,71.40
2023-03-16T22:14:42.377Z,71.30
2023-03-16T22:17:24.406Z,71.40
2023-03-16T22:19:51.926Z,69.80
2023-03-16T22:22:18.821Z,72.00
2023-03-16T22:24:46.102Z,72.10
2023-03-16T22:27:26.068Z,72.10
2023-03-16T22:29:53.002Z,70.00
2023-03-16T22:32:22.354Z,72.30
2023-03-16T22:34:56.582Z,72.20
2023-03-16T22:37:27.634Z,72.00
2023-03-16T22:39:57.324Z,71.90
2023-03-16T22:42:38.826Z,72.30
2023-03-16T22:45:21.426Z,70.40
2023-03-16T22:47:48.371Z,70.90
2023-03-16T22:50:17.884Z,72.40
2023-03-16T22:52:50.531Z,72.30
2023-03-16T22:55:28.759Z,72.10
2023-03-16T22:58:05.494Z,71.90
2023-03-16T23:00:32.470Z,70.60
2023-03-16T23:02:59.453Z,72.20
2023-03-16T23:05:30.098Z,72.20
2023-03-16T23:08:00.941Z,71.60
2023-03-16T23:10:29.590Z,68.00
2023-03-16T23:12:59.541Z,72.50
2023-03-16T23:15:30.123Z,72.30
2023-03-16T23:17:57.088Z,72.10
2023-03-16T23:20:31.917Z,68.10
2023-03-16T23:22:58.972Z,71.50
2023-03-16T23:25:25.890Z,72.50
2023-03-16T23:27:53.080Z,72.50
2023-03-16T23:30:25.817Z,72.50
2023-03-16T23:32:55.356Z,71.50
2023-03-16T23:35:27.414Z,72.20
2023-03-16T23:37:55.736Z,72.10
2023-03-16T23:40:26.390Z,72.50
2023-03-16T23:42:57.134Z,72.30
2023-03-16T23:45:39.742Z,72.30
2023-03-16T23:48:15.133Z,71.90
2023-03-16T23:50:43.238Z,72.30
2023-03-16T23:53:19.413Z,72.60
2023-03-16T23:55:48.176Z,71.80
2023-03-16T23:58:16.276Z,72.60
